createdAt,value
2016-11-19T00:00:17.742Z,994.76
2016-11-19T00:00:39.472Z,994.72
2016-11-19T00:01:01.201Z,994.70
2016-11-19T00:01:22.930Z,994.73
2016-11-19T00:01:44.654Z,994.69
2016-11-19T00:02:06.376Z,994.70
2016-11-19T00:02:28.107Z,994.68
2016-11-19T00:02:49.825Z,994.72
2016-11-19T00:03:11.566Z,994.69
2016-11-19T00:03:33.292Z,994.73
2016-11-19T00:03:55.017Z,994.85
2016-11-19T00:04:16.746Z,994.76
2016-11-19T00:04:38.473Z,994.85
2016-11-19T00:05:00.212Z,994.67
2016-11-19T00:05:21.945Z,994.63
2016-11-19T00:05:43.675Z,994.74
2016-11-19T00:06:05.410Z,994.62
2016-11-19T00:06:27.133Z,994.73
2016-11-19T00:06:48.881Z,994.78
2016-11-19T00:07:10.624Z,994.73
2016-11-19T00:07:32.332Z,994.79
2016-11-19T00:07:54.057Z,994.75
2016-11-19T00:08:15.791Z,994.68
2016-11-19T00:08:37.528Z,994.72
2016-11-19T00:08:59.251Z,994.70
2016-11-19T00:09:20.985Z,994.70
2016-11-19T00:09:42.731Z,994.79
2016-11-19T00:10:04.476Z,994.75
2016-11-19T00:10:26.199Z,994.58
2016-11-19T00:10:47.934Z,994.66
2016-11-19T00:11:09.653Z,994.70
2016-11-19T00:11:31.382Z,994.64
2016-11-19T00:11:53.123Z,994.67
2016-11-19T00:12:14.850Z,994.59
2016-11-19T00:12:36.607Z,994.65
2016-11-19T00:12:58.343Z,994.67
2016-11-19T00:13:20.077Z,994.71
2016-11-19T00:13:41.827Z,994.63
2016-11-19T00:14:03.549Z,994.60
2016-11-19T00:14:25.405Z,994.57
2016-11-19T00:14:47.122Z,994.69
2016-11-19T00:15:08.902Z,994.65
2016-11-19T00:15:30.625Z,994.51
2016-11-19T00:15:52.352Z,994.50
2016-11-19T00:16:14.081Z,994.52
2016-11-19T00:16:35.804Z,994.55
2016-11-19T00:16:57.556Z,994.49
2016-11-19T00:17:19.294Z,994.48
2016-11-19T00:17:41.027Z,994.53
2016-11-19T00:18:02.748Z,994.49
2016-11-19T00:18:24.477Z,994.50
2016-11-19T00:18:46.245Z,994.49
2016-11-19T00:19:07.970Z,994.42
2016-11-19T00:19:29.688Z,994.55
2016-11-19T00:19:51.412Z,994.44
2016-11-19T00:20:13.127Z,994.40
2016-11-19T00:20:34.874Z,994.38
2016-11-19T00:20:56.619Z,994.26
2016-11-19T00:21:18.337Z,994.42
2016-11-19T00:21:40.068Z,994.36
2016-11-19T00:22:01.786Z,994.36
2016-11-19T00:22:23.507Z,994.29
2016-11-19T00:22:45.233Z,994.31
2016-11-19T00:23:06.963Z,994.28
2016-11-19T00:23:28.698Z,994.24
2016-11-19T00:23:50.425Z,994.33
2016-11-19T00:24:12.150Z,994.31
2016-11-19T00:24:33.875Z,994.26
2016-11-19T00:24:55.614Z,994.32
2016-11-19T00:25:17.341Z,994.26
2016-11-19T00:25:39.075Z,994.28
2016-11-19T00:26:00.814Z,994.29
2016-11-19T00:26:22.542Z,994.37
2016-11-19T00:26:44.256Z,994.34
2016-11-19T00:27:05.981Z,994.28
2016-11-19T00:27:27.703Z,994.30
2016-11-19T00:27:49.432Z,994.18
2016-11-19T00:28:11.149Z,994.28
2016-11-19T00:28:32.872Z,994.28
2016-11-19T00:28:54.602Z,994.24
2016-11-19T00:29:16.329Z,994.17
2016-11-19T00:29:38.057Z,994.25
2016-11-19T00:29:59.783Z,994.24
2016-11-19T00:30:21.504Z,994.14
2016-11-19T00:30:43.220Z,994.12
2016-11-19T00:31:04.952Z,994.15
2016-11-19T00:31:26.672Z,994.23
2016-11-19T00:31:48.399Z,994.21
2016-11-19T00:32:10.115Z,994.08
2016-11-19T00:32:31.844Z,994.15
2016-11-19T00:32:53.565Z,994.20
2016-11-19T00:33:15.294Z,994.12
2016-11-19T00:33:37.018Z,994.17
2016-11-19T00:33:58.745Z,994.22
2016-11-19T00:34:20.469Z,994.26
2016-11-19T00:34:42.193Z,994.22
2016-11-19T00:35:03.909Z,994.18
2016-11-19T00:35:25.627Z,994.21
2016-11-19T00:35:47.356Z,994.28
2016-11-19T00:36:09.078Z,994.41
2016-11-19T00:36:30.801Z,994.30
2016-11-19T00:36:52.523Z,994.42
2016-11-19T00:37:14.256Z,994.31
2016-11-19T00:37:35.979Z,994.34
2016-11-19T00:37:57.698Z,994.32
2016-11-19T00:38:19.429Z,994.38
2016-11-19T00:38:41.161Z,994.34
2016-11-19T00:39:07.662Z,994.26
2016-11-19T00:39:29.392Z,994.30
2016-11-19T00:39:51.114Z,994.35
2016-11-19T00:40:12.835Z,994.30
2016-11-19T00:40:39.329Z,994.33
2016-11-19T00:41:01.060Z,994.20
2016-11-19T00:41:22.798Z,994.17
2016-11-19T00:41:44.519Z,994.21
2016-11-19T00:42:06.251Z,994.18
2016-11-19T00:42:27.967Z,994.17
2016-11-19T00:42:49.695Z,994.14
2016-11-19T00:43:11.422Z,994.18
2016-11-19T00:43:33.143Z,994.27
2016-11-19T00:43:54.872Z,994.19
2016-11-19T00:44:16.601Z,994.17
2016-11-19T00:44:38.329Z,994.11
2016-11-19T00:45:00.043Z,994.08
2016-11-19T00:45:21.771Z,994.06
2016-11-19T00:45:43.494Z,994.05
2016-11-19T00:46:05.214Z,994.10
2016-11-19T00:46:26.930Z,994.05
2016-11-19T00:46:48.658Z,994.10
2016-11-19T00:47:10.392Z,994.09
2016-11-19T00:47:32.104Z,994.13
2016-11-19T00:47:53.837Z,994.11
2016-11-19T00:48:15.560Z,994.18
2016-11-19T00:48:37.287Z,994.10
2016-11-19T00:48:59.015Z,994.14
2016-11-19T00:49:20.744Z,994.20
2016-11-19T00:49:42.461Z,994.23
2016-11-19T00:50:04.188Z,994.31
2016-11-19T00:50:25.910Z,994.24
2016-11-19T00:50:47.661Z,994.23
2016-11-19T00:51:09.375Z,994.30
2016-11-19T00:51:31.108Z,994.25
2016-11-19T00:51:52.839Z,994.32
2016-11-19T00:52:14.573Z,994.49
2016-11-19T00:52:36.299Z,994.46
2016-11-19T00:52:58.034Z,994.49
2016-11-19T00:53:19.763Z,994.48
2016-11-19T00:53:41.499Z,994.57
2016-11-19T00:54:03.219Z,994.49
2016-11-19T00:54:24.939Z,994.54
2016-11-19T00:54:46.663Z,994.52
2016-11-19T00:55:08.386Z,994.56
2016-11-19T00:55:30.235Z,994.56
2016-11-19T00:55:51.954Z,994.50
2016-11-19T00:56:13.685Z,994.56
2016-11-19T00:56:35.407Z,994.62
2016-11-19T00:56:57.133Z,994.51
2016-11-19T00:57:18.869Z,994.48
2016-11-19T00:57:40.585Z,994.50
2016-11-19T00:58:02.308Z,994.52
2016-11-19T00:58:26.920Z,994.50
2016-11-19T00:58:48.648Z,994.65
2016-11-19T00:59:10.398Z,994.58
2016-11-19T00:59:32.113Z,994.54
2016-11-19T00:59:53.846Z,994.54
2016-11-19T01:00:15.571Z,994.55
2016-11-19T01:00:37.295Z,994.60
2016-11-19T01:00:59.013Z,994.69
2016-11-19T01:01:20.736Z,994.62
2016-11-19T01:01:42.462Z,994.61
2016-11-19T01:02:04.190Z,994.48
2016-11-19T01:02:25.907Z,994.54
2016-11-19T01:02:47.634Z,994.59
2016-11-19T01:03:14.134Z,994.58
2016-11-19T01:03:35.860Z,994.52
2016-11-19T01:03:57.578Z,994.63
2016-11-19T01:04:19.304Z,994.69
2016-11-19T01:04:41.026Z,994.62
2016-11-19T01:05:02.749Z,994.62
2016-11-19T01:05:24.468Z,994.58
2016-11-19T01:05:46.198Z,994.63
2016-11-19T01:06:07.936Z,994.69
2016-11-19T01:06:29.665Z,994.67
2016-11-19T01:06:51.386Z,994.65
2016-11-19T01:07:13.109Z,994.64
2016-11-19T01:07:34.836Z,994.63
2016-11-19T01:07:56.564Z,994.75
2016-11-19T01:08:18.282Z,994.65
2016-11-19T01:08:40.002Z,994.59
2016-11-19T01:09:01.723Z,994.59
2016-11-19T01:09:23.450Z,994.63
2016-11-19T01:09:45.181Z,994.67
2016-11-19T01:10:06.909Z,994.71
2016-11-19T01:10:28.638Z,994.70
2016-11-19T01:10:50.384Z,994.69
2016-11-19T01:11:12.103Z,994.70
2016-11-19T01:11:33.829Z,994.72
2016-11-19T01:11:55.553Z,994.67
2016-11-19T01:12:17.279Z,994.65
2016-11-19T01:12:39.001Z,994.64
2016-11-19T01:13:00.725Z,994.64
2016-11-19T01:13:22.449Z,994.58
2016-11-19T01:13:44.166Z,994.68
2016-11-19T01:14:05.892Z,994.62
2016-11-19T01:14:27.618Z,994.65
2016-11-19T01:14:49.340Z,994.60
2016-11-19T01:15:11.070Z,994.60
2016-11-19T01:15:32.831Z,994.65
2016-11-19T01:15:54.555Z,994.63
2016-11-19T01:16:16.278Z,994.63
2016-11-19T01:16:38.060Z,994.67
2016-11-19T01:16:59.780Z,994.67
2016-11-19T01:17:21.499Z,994.66
2016-11-19T01:17:43.240Z,994.79
2016-11-19T01:18:04.947Z,994.62
2016-11-19T01:18:26.673Z,994.63
2016-11-19T01:18:48.406Z,994.60
2016-11-19T01:19:10.121Z,994.67
2016-11-19T01:19:31.849Z,994.68
2016-11-19T01:19:53.559Z,994.66
2016-11-19T01:20:15.286Z,994.65
2016-11-19T01:20:37.006Z,994.69
2016-11-19T01:20:58.773Z,994.71
2016-11-19T01:21:20.495Z,994.67
2016-11-19T01:21:42.213Z,994.71
2016-11-19T01:22:03.946Z,994.60
2016-11-19T01:22:25.673Z,994.60
2016-11-19T01:22:47.398Z,994.65
2016-11-19T01:23:09.141Z,994.52
2016-11-19T01:23:30.876Z,994.56
2016-11-19T01:23:52.593Z,994.56
2016-11-19T01:24:14.316Z,994.48
2016-11-19T01:24:36.041Z,994.47
2016-11-19T01:24:57.768Z,994.48
2016-11-19T01:25:19.493Z,994.45
2016-11-19T01:25:41.239Z,994.42
2016-11-19T01:26:03.967Z,994.43
2016-11-19T01:26:25.686Z,994.41
2016-11-19T01:26:47.415Z,994.38
2016-11-19T01:27:09.151Z,994.42
2016-11-19T01:27:30.899Z,994.31
2016-11-19T01:27:52.627Z,994.24
2016-11-19T01:28:14.352Z,994.35
2016-11-19T01:28:36.067Z,994.31
2016-11-19T01:28:57.789Z,994.28
2016-11-19T01:29:19.507Z,994.37
2016-11-19T01:29:41.231Z,994.32
2016-11-19T01:30:02.949Z,994.31
2016-11-19T01:30:24.673Z,994.33
2016-11-19T01:30:46.393Z,994.29
2016-11-19T01:31:08.121Z,994.39
2016-11-19T01:31:29.885Z,994.32
2016-11-19T01:31:51.600Z,994.38
2016-11-19T01:32:13.327Z,994.41
2016-11-19T01:32:35.044Z,994.34
2016-11-19T01:32:56.768Z,994.48
2016-11-19T01:33:18.490Z,994.46
2016-11-19T01:33:40.222Z,994.49
2016-11-19T01:34:01.949Z,994.48
2016-11-19T01:34:23.696Z,994.41
2016-11-19T01:34:45.416Z,994.48
2016-11-19T01:35:07.146Z,994.48
2016-11-19T01:35:28.883Z,994.52
2016-11-19T01:35:50.615Z,994.46
2016-11-19T01:36:12.340Z,994.50
2016-11-19T01:36:34.081Z,994.46
2016-11-19T01:36:55.803Z,994.47
2016-11-19T01:37:17.532Z,994.51
2016-11-19T01:37:39.252Z,994.53
2016-11-19T01:38:00.976Z,994.47
2016-11-19T01:38:22.702Z,994.46
2016-11-19T01:38:44.419Z,994.48
2016-11-19T01:39:06.168Z,994.44
2016-11-19T01:39:27.887Z,994.43
2016-11-19T01:39:49.610Z,994.40
2016-11-19T01:40:11.344Z,994.48
2016-11-19T01:40:33.126Z,994.39
2016-11-19T01:40:54.953Z,994.55
2016-11-19T01:41:21.494Z,994.40
2016-11-19T01:41:43.223Z,994.49
2016-11-19T01:42:04.959Z,994.45
2016-11-19T01:42:26.697Z,994.46
2016-11-19T01:42:51.069Z,994.44
2016-11-19T01:43:12.797Z,994.52
2016-11-19T01:43:34.514Z,994.53
2016-11-19T01:43:56.241Z,994.49
2016-11-19T01:44:17.967Z,994.47
2016-11-19T01:44:39.693Z,994.47
2016-11-19T01:45:01.413Z,994.51
2016-11-19T01:45:23.134Z,994.37
2016-11-19T01:45:44.860Z,994.47
2016-11-19T01:46:06.595Z,994.48
2016-11-19T01:46:28.326Z,994.48
2016-11-19T01:46:50.044Z,994.42
2016-11-19T01:47:11.762Z,994.49
2016-11-19T01:47:33.492Z,994.36
2016-11-19T01:47:55.209Z,994.44
2016-11-19T01:48:16.931Z,994.46
2016-11-19T01:48:38.655Z,994.42
2016-11-19T01:49:00.386Z,994.44
2016-11-19T01:49:22.111Z,994.50
2016-11-19T01:49:43.831Z,994.50
2016-11-19T01:50:05.557Z,994.38
2016-11-19T01:50:27.287Z,994.47
2016-11-19T01:50:49.021Z,994.40
2016-11-19T01:51:10.742Z,994.40
2016-11-19T01:51:32.470Z,994.40
2016-11-19T01:51:54.195Z,994.40
2016-11-19T01:52:15.933Z,994.39
2016-11-19T01:52:37.662Z,994.36
2016-11-19T01:52:59.385Z,994.39
2016-11-19T01:53:21.110Z,994.33
2016-11-19T01:53:42.829Z,994.41
2016-11-19T01:54:04.547Z,994.40
2016-11-19T01:54:26.268Z,994.36
2016-11-19T01:54:48.003Z,994.42
2016-11-19T01:55:09.726Z,994.38
2016-11-19T01:55:31.470Z,994.39
2016-11-19T01:55:53.216Z,994.40
2016-11-19T01:56:14.944Z,994.38
2016-11-19T01:56:36.668Z,994.47
2016-11-19T01:56:58.399Z,994.43
2016-11-19T01:57:20.116Z,994.35
2016-11-19T01:57:41.853Z,994.38
2016-11-19T01:58:03.589Z,994.44
2016-11-19T01:58:25.309Z,994.41
2016-11-19T01:58:47.031Z,994.43
2016-11-19T01:59:08.769Z,994.35
2016-11-19T01:59:30.489Z,994.31
2016-11-19T01:59:52.218Z,994.36
2016-11-19T02:00:13.966Z,994.29
2016-11-19T02:00:35.675Z,994.36
2016-11-19T02:00:57.401Z,994.41
2016-11-19T02:01:19.127Z,994.27
2016-11-19T02:01:40.850Z,994.27
2016-11-19T02:02:02.572Z,994.36
2016-11-19T02:02:24.307Z,994.36
2016-11-19T02:02:46.045Z,994.31
2016-11-19T02:03:07.758Z,994.33
2016-11-19T02:03:29.478Z,994.37
2016-11-19T02:03:51.199Z,994.28
2016-11-19T02:04:12.926Z,994.32
2016-11-19T02:04:34.653Z,994.28
2016-11-19T02:04:56.380Z,994.41
2016-11-19T02:05:18.098Z,994.38
2016-11-19T02:05:39.815Z,994.39
2016-11-19T02:06:01.538Z,994.48
2016-11-19T02:06:23.252Z,994.48
2016-11-19T02:06:44.984Z,994.52
2016-11-19T02:07:06.853Z,994.42
2016-11-19T02:07:28.575Z,994.40
2016-11-19T02:07:50.298Z,994.42
2016-11-19T02:08:12.019Z,994.37
2016-11-19T02:08:33.736Z,994.44
2016-11-19T02:08:55.480Z,994.42
2016-11-19T02:09:17.206Z,994.40
2016-11-19T02:09:38.927Z,994.36
2016-11-19T02:10:00.653Z,994.32
2016-11-19T02:10:22.378Z,994.32
2016-11-19T02:10:44.096Z,994.33
2016-11-19T02:11:05.828Z,994.35
2016-11-19T02:11:27.677Z,994.27
2016-11-19T02:11:49.402Z,994.28
2016-11-19T02:12:11.125Z,994.18
2016-11-19T02:12:32.851Z,994.28
2016-11-19T02:12:54.571Z,994.23
2016-11-19T02:13:16.302Z,994.12
2016-11-19T02:13:38.020Z,994.23
2016-11-19T02:13:59.739Z,994.21
2016-11-19T02:14:21.460Z,994.24
2016-11-19T02:14:43.192Z,994.29
2016-11-19T02:15:04.925Z,994.06
2016-11-19T02:15:26.651Z,994.16
2016-11-19T02:15:48.376Z,994.12
2016-11-19T02:16:10.093Z,994.12
2016-11-19T02:16:31.821Z,994.06
2016-11-19T02:16:53.568Z,994.12
2016-11-19T02:17:15.331Z,994.09
2016-11-19T02:17:37.062Z,994.03
2016-11-19T02:17:58.779Z,994.08
2016-11-19T02:18:20.507Z,994.04
2016-11-19T02:18:42.236Z,994.05
2016-11-19T02:19:03.964Z,993.97
2016-11-19T02:19:25.679Z,994.06
2016-11-19T02:19:47.399Z,994.02
2016-11-19T02:20:09.121Z,993.99
2016-11-19T02:20:30.847Z,994.01
2016-11-19T02:20:52.571Z,994.01
2016-11-19T02:21:14.292Z,994.06
2016-11-19T02:21:36.020Z,994.01
2016-11-19T02:21:57.738Z,993.95
2016-11-19T02:22:19.456Z,993.96
2016-11-19T02:22:41.192Z,994.11
2016-11-19T02:23:02.920Z,993.92
2016-11-19T02:23:24.639Z,994.01
2016-11-19T02:23:46.364Z,993.97
2016-11-19T02:24:08.088Z,993.95
2016-11-19T02:24:29.819Z,993.93
2016-11-19T02:24:51.523Z,993.96
2016-11-19T02:25:13.256Z,993.90
2016-11-19T02:25:34.984Z,993.84
2016-11-19T02:25:56.714Z,993.79
2016-11-19T02:26:18.441Z,993.78
2016-11-19T02:26:40.170Z,993.78
2016-11-19T02:27:01.897Z,993.71
2016-11-19T02:27:23.632Z,993.71
2016-11-19T02:27:45.359Z,993.71
2016-11-19T02:28:07.079Z,993.76
2016-11-19T02:28:28.797Z,993.69
2016-11-19T02:28:50.521Z,993.67
2016-11-19T02:29:12.247Z,993.66
2016-11-19T02:29:33.965Z,993.69
2016-11-19T02:29:55.688Z,993.63
2016-11-19T02:30:17.415Z,993.64
2016-11-19T02:30:39.138Z,993.62
2016-11-19T02:31:00.874Z,993.57
2016-11-19T02:31:22.587Z,993.58
2016-11-19T02:31:44.312Z,993.59
2016-11-19T02:32:06.033Z,993.64
2016-11-19T02:32:27.751Z,993.60
2016-11-19T02:32:49.494Z,993.52
2016-11-19T02:33:11.220Z,993.50
2016-11-19T02:33:32.943Z,993.56
2016-11-19T02:33:54.670Z,993.64
2016-11-19T02:34:16.395Z,993.69
2016-11-19T02:34:38.117Z,993.71
2016-11-19T02:34:59.838Z,993.73
2016-11-19T02:35:21.576Z,993.68
2016-11-19T02:35:43.287Z,993.73
2016-11-19T02:36:05.012Z,993.73
2016-11-19T02:36:26.740Z,993.77
2016-11-19T02:36:48.464Z,993.74
2016-11-19T02:37:10.181Z,993.72
2016-11-19T02:37:31.901Z,993.69
2016-11-19T02:37:53.633Z,993.72
2016-11-19T02:38:15.357Z,993.66
2016-11-19T02:38:37.078Z,993.63
2016-11-19T02:38:58.795Z,993.67
2016-11-19T02:39:20.521Z,993.73
2016-11-19T02:39:42.244Z,993.79
2016-11-19T02:40:04.018Z,993.70
2016-11-19T02:40:25.738Z,993.72
2016-11-19T02:40:47.465Z,993.80
2016-11-19T02:41:09.273Z,993.81
2016-11-19T02:41:31.003Z,993.79
2016-11-19T02:41:52.739Z,993.82
2016-11-19T02:42:14.461Z,993.86
2016-11-19T02:42:36.180Z,993.85
2016-11-19T02:42:57.905Z,993.81
2016-11-19T02:43:19.647Z,993.86
2016-11-19T02:43:41.363Z,993.87
2016-11-19T02:44:03.083Z,993.93
2016-11-19T02:44:24.815Z,993.88
2016-11-19T02:44:46.538Z,993.84
2016-11-19T02:45:08.264Z,993.92
2016-11-19T02:45:30.119Z,993.86
2016-11-19T02:45:51.837Z,993.87
2016-11-19T02:46:13.572Z,993.84
2016-11-19T02:46:36.300Z,993.80
2016-11-19T02:46:58.016Z,993.88
2016-11-19T02:47:19.733Z,993.79
2016-11-19T02:47:41.478Z,993.74
2016-11-19T02:48:03.200Z,993.76
2016-11-19T02:48:24.935Z,993.74
2016-11-19T02:48:46.704Z,993.81
2016-11-19T02:49:08.581Z,993.74
2016-11-19T02:49:30.313Z,993.73
2016-11-19T02:49:52.033Z,993.68
2016-11-19T02:50:13.754Z,993.67
2016-11-19T02:50:35.473Z,993.65
2016-11-19T02:50:57.197Z,993.65
2016-11-19T02:51:18.925Z,993.66
2016-11-19T02:51:40.640Z,993.64
2016-11-19T02:52:02.391Z,993.67
2016-11-19T02:52:24.129Z,993.59
2016-11-19T02:52:45.838Z,993.59
2016-11-19T02:53:07.560Z,993.57
2016-11-19T02:53:29.277Z,993.60
2016-11-19T02:53:51.014Z,993.61
2016-11-19T02:54:12.754Z,993.63
2016-11-19T02:54:34.473Z,993.53
2016-11-19T02:54:56.201Z,993.58
2016-11-19T02:55:17.932Z,993.58
2016-11-19T02:55:39.653Z,993.60
2016-11-19T02:56:01.367Z,993.57
2016-11-19T02:56:23.086Z,993.58
2016-11-19T02:56:44.842Z,993.49
2016-11-19T02:57:06.568Z,993.54
2016-11-19T02:57:28.289Z,993.56
2016-11-19T02:57:50.011Z,993.57
2016-11-19T02:58:11.746Z,993.53
2016-11-19T02:58:33.466Z,993.49
2016-11-19T02:58:55.202Z,993.50
2016-11-19T02:59:16.920Z,993.46
2016-11-19T02:59:38.647Z,993.51
2016-11-19T03:00:00.366Z,993.47
2016-11-19T03:00:22.089Z,993.41
2016-11-19T03:00:43.817Z,993.40
2016-11-19T03:01:05.539Z,993.49
2016-11-19T03:01:27.259Z,993.53
2016-11-19T03:01:48.991Z,993.52
2016-11-19T03:02:10.712Z,993.55
2016-11-19T03:02:32.443Z,993.58
2016-11-19T03:02:54.164Z,993.51
2016-11-19T03:03:15.892Z,993.52
2016-11-19T03:03:40.221Z,993.55
2016-11-19T03:04:01.952Z,993.53
2016-11-19T03:04:23.691Z,993.49
2016-11-19T03:04:45.400Z,993.55
2016-11-19T03:05:07.118Z,993.55
2016-11-19T03:05:28.839Z,993.54
2016-11-19T03:05:55.330Z,993.54
2016-11-19T03:06:17.051Z,993.55
2016-11-19T03:06:38.773Z,993.60
2016-11-19T03:07:00.499Z,993.59
2016-11-19T03:07:22.217Z,993.57
2016-11-19T03:07:43.939Z,993.60
2016-11-19T03:08:05.663Z,993.52
2016-11-19T03:08:27.391Z,993.52
2016-11-19T03:08:49.115Z,993.60
2016-11-19T03:09:10.835Z,993.61
2016-11-19T03:09:32.554Z,993.55
2016-11-19T03:09:54.285Z,993.54
2016-11-19T03:10:16.002Z,993.64
2016-11-19T03:10:37.733Z,993.54
2016-11-19T03:10:59.458Z,993.45
2016-11-19T03:11:21.230Z,993.48
2016-11-19T03:11:42.955Z,993.48
2016-11-19T03:12:04.677Z,993.49
2016-11-19T03:12:29.125Z,993.57
2016-11-19T03:12:50.971Z,993.46
2016-11-19T03:13:12.691Z,993.47
2016-11-19T03:13:34.418Z,993.54
2016-11-19T03:13:56.137Z,993.51
2016-11-19T03:14:17.851Z,993.55
2016-11-19T03:14:39.578Z,993.51
2016-11-19T03:15:01.299Z,993.52
2016-11-19T03:15:23.023Z,993.50
2016-11-19T03:15:44.737Z,993.48
2016-11-19T03:16:06.463Z,993.50
2016-11-19T03:16:28.185Z,993.51
2016-11-19T03:16:49.906Z,993.49
2016-11-19T03:17:11.755Z,993.53
2016-11-19T03:17:33.474Z,993.59
2016-11-19T03:17:55.195Z,993.64
2016-11-19T03:18:16.945Z,993.61
2016-11-19T03:18:38.671Z,993.59
2016-11-19T03:19:00.396Z,993.59
2016-11-19T03:19:22.118Z,993.64
2016-11-19T03:19:43.837Z,993.68
2016-11-19T03:20:05.577Z,993.68
2016-11-19T03:20:27.299Z,993.71
2016-11-19T03:20:49.022Z,993.67
2016-11-19T03:21:10.752Z,993.72
2016-11-19T03:21:32.465Z,993.65
2016-11-19T03:21:54.195Z,993.64
2016-11-19T03:22:15.920Z,993.61
2016-11-19T03:22:37.636Z,993.65
2016-11-19T03:22:59.354Z,993.67
2016-11-19T03:23:21.074Z,993.65
2016-11-19T03:23:42.801Z,993.65
2016-11-19T03:24:04.536Z,993.74
2016-11-19T03:24:26.271Z,993.71
2016-11-19T03:24:47.989Z,993.67
2016-11-19T03:25:09.729Z,993.62
2016-11-19T03:25:31.437Z,993.68
2016-11-19T03:25:53.326Z,993.66
2016-11-19T03:26:15.045Z,993.68
2016-11-19T03:26:36.771Z,993.72
2016-11-19T03:26:58.495Z,993.72
2016-11-19T03:27:20.209Z,993.70
2016-11-19T03:27:41.926Z,993.67
2016-11-19T03:28:03.642Z,993.75
2016-11-19T03:28:25.376Z,993.72
2016-11-19T03:28:47.098Z,993.66
2016-11-19T03:29:08.831Z,993.66
2016-11-19T03:29:30.555Z,993.70
2016-11-19T03:29:52.300Z,993.66
2016-11-19T03:30:14.019Z,993.68
2016-11-19T03:31:02.248Z,993.66
2016-11-19T03:31:23.963Z,993.68
2016-11-19T03:31:45.680Z,993.69
2016-11-19T03:32:07.432Z,993.75
2016-11-19T03:32:29.153Z,993.76
2016-11-19T03:32:50.869Z,993.77
2016-11-19T03:33:12.597Z,993.75
2016-11-19T03:33:34.329Z,993.69
2016-11-19T03:33:56.057Z,993.69
2016-11-19T03:34:17.777Z,993.66
2016-11-19T03:34:39.495Z,993.71
2016-11-19T03:35:01.213Z,993.74
2016-11-19T03:35:22.940Z,993.67
2016-11-19T03:35:44.662Z,993.70
2016-11-19T03:36:06.381Z,993.73
2016-11-19T03:36:28.104Z,993.73
2016-11-19T03:36:49.829Z,993.80
2016-11-19T03:37:11.547Z,993.77
2016-11-19T03:37:33.265Z,993.78
2016-11-19T03:37:54.990Z,993.75
2016-11-19T03:38:16.711Z,993.81
2016-11-19T03:38:38.437Z,993.75
2016-11-19T03:39:00.171Z,993.75
2016-11-19T03:39:21.882Z,993.78
2016-11-19T03:39:43.607Z,993.69
2016-11-19T03:40:05.331Z,993.72
2016-11-19T03:40:27.047Z,993.70
2016-11-19T03:40:48.763Z,993.67
2016-11-19T03:41:10.479Z,993.61
2016-11-19T03:41:32.205Z,993.69
2016-11-19T03:41:53.935Z,993.63
2016-11-19T03:42:15.654Z,993.73
2016-11-19T03:42:37.374Z,993.66
2016-11-19T03:42:59.097Z,993.67
2016-11-19T03:43:20.833Z,993.74
2016-11-19T03:43:42.550Z,993.67
2016-11-19T03:44:04.269Z,993.67
2016-11-19T03:44:25.992Z,993.60
2016-11-19T03:44:47.713Z,993.66
2016-11-19T03:45:09.441Z,993.63
2016-11-19T03:45:31.160Z,993.64
2016-11-19T03:45:52.901Z,993.74
2016-11-19T03:46:14.626Z,993.62
2016-11-19T03:46:36.343Z,993.65
2016-11-19T03:46:58.064Z,993.63
2016-11-19T03:47:19.791Z,993.61
2016-11-19T03:47:41.521Z,993.66
2016-11-19T03:48:03.365Z,993.67
2016-11-19T03:48:25.087Z,993.67
2016-11-19T03:48:46.811Z,993.65
2016-11-19T03:49:08.536Z,993.67
2016-11-19T03:49:30.272Z,993.69
2016-11-19T03:49:51.997Z,993.67
2016-11-19T03:50:13.720Z,993.65
2016-11-19T03:50:35.446Z,993.55
2016-11-19T03:50:57.170Z,993.51
2016-11-19T03:51:18.890Z,993.46
2016-11-19T03:51:40.607Z,993.43
2016-11-19T03:52:02.328Z,993.42
2016-11-19T03:52:24.044Z,993.43
2016-11-19T03:52:45.790Z,993.43
2016-11-19T03:53:07.514Z,993.38
2016-11-19T03:53:29.232Z,993.35
2016-11-19T03:53:50.951Z,993.37
2016-11-19T03:54:12.668Z,993.35
2016-11-19T03:54:34.388Z,993.29
2016-11-19T03:54:56.121Z,993.36
2016-11-19T03:55:17.832Z,993.40
2016-11-19T03:55:39.559Z,993.35
2016-11-19T03:56:01.282Z,993.34
2016-11-19T03:56:23.003Z,993.30
2016-11-19T03:56:44.741Z,993.30
2016-11-19T03:57:06.465Z,993.28
2016-11-19T03:57:28.184Z,993.32
2016-11-19T03:57:49.903Z,993.26
2016-11-19T03:58:11.620Z,993.27
2016-11-19T03:58:33.339Z,993.29
2016-11-19T03:58:55.060Z,993.32
2016-11-19T03:59:16.785Z,993.37
2016-11-19T03:59:38.506Z,993.34
2016-11-19T04:00:00.235Z,993.33
2016-11-19T04:00:21.955Z,993.35
2016-11-19T04:00:43.684Z,993.35
2016-11-19T04:01:05.422Z,993.36
2016-11-19T04:01:27.134Z,993.40
2016-11-19T04:01:48.859Z,993.39
2016-11-19T04:02:10.579Z,993.42
2016-11-19T04:02:32.323Z,993.41
2016-11-19T04:02:54.044Z,993.47
2016-11-19T04:03:15.773Z,993.45
2016-11-19T04:03:37.491Z,993.53
2016-11-19T04:03:59.221Z,993.48
2016-11-19T04:04:20.938Z,993.42
2016-11-19T04:04:42.655Z,993.43
2016-11-19T04:05:04.376Z,993.39
2016-11-19T04:05:26.098Z,993.41
2016-11-19T04:05:47.818Z,993.40
2016-11-19T04:06:09.568Z,993.34
2016-11-19T04:06:31.284Z,993.39
2016-11-19T04:06:53.002Z,993.32
2016-11-19T04:07:14.723Z,993.31
2016-11-19T04:07:36.442Z,993.36
2016-11-19T04:07:58.166Z,993.31
2016-11-19T04:08:19.931Z,993.34
2016-11-19T04:08:41.641Z,993.28
2016-11-19T04:09:03.358Z,993.28
2016-11-19T04:09:25.078Z,993.29
2016-11-19T04:09:46.803Z,993.27
2016-11-19T04:10:08.537Z,993.21
2016-11-19T04:10:30.265Z,993.25
2016-11-19T04:10:54.558Z,993.25
2016-11-19T04:11:16.284Z,993.22
2016-11-19T04:11:37.999Z,993.20
2016-11-19T04:11:59.726Z,993.24
2016-11-19T04:12:21.496Z,993.28
2016-11-19T04:12:43.233Z,993.27
2016-11-19T04:13:04.954Z,993.22
2016-11-19T04:13:26.681Z,993.25
2016-11-19T04:13:48.403Z,993.19
2016-11-19T04:14:10.129Z,993.27
2016-11-19T04:14:31.846Z,993.26
2016-11-19T04:14:53.566Z,993.29
2016-11-19T04:15:15.283Z,993.27
2016-11-19T04:15:37.009Z,993.29
2016-11-19T04:15:58.726Z,993.28
2016-11-19T04:16:20.441Z,993.32
2016-11-19T04:16:42.172Z,993.33
2016-11-19T04:17:03.959Z,993.35
2016-11-19T04:17:25.682Z,993.34
2016-11-19T04:17:47.402Z,993.32
2016-11-19T04:18:09.122Z,993.36
2016-11-19T04:18:30.842Z,993.40
2016-11-19T04:18:52.562Z,993.46
2016-11-19T04:19:14.300Z,993.42
2016-11-19T04:19:36.016Z,993.33
2016-11-19T04:19:57.746Z,993.40
2016-11-19T04:20:19.466Z,993.41
2016-11-19T04:20:41.185Z,993.36
2016-11-19T04:21:02.908Z,993.31
2016-11-19T04:21:24.652Z,993.29
2016-11-19T04:21:46.349Z,993.26
2016-11-19T04:22:08.069Z,993.25
2016-11-19T04:22:29.794Z,993.26
2016-11-19T04:22:51.514Z,993.25
2016-11-19T04:23:13.250Z,993.28
2016-11-19T04:23:34.968Z,993.25
2016-11-19T04:23:56.690Z,993.23
2016-11-19T04:24:18.417Z,993.23
2016-11-19T04:24:40.137Z,993.20
2016-11-19T04:25:01.887Z,993.23
2016-11-19T04:25:23.620Z,993.21
2016-11-19T04:25:45.346Z,993.17
2016-11-19T04:26:07.068Z,993.21
2016-11-19T04:26:28.785Z,993.22
2016-11-19T04:26:50.522Z,993.13
2016-11-19T04:27:12.238Z,993.09
2016-11-19T04:27:33.954Z,993.08
2016-11-19T04:27:58.560Z,993.08
2016-11-19T04:28:20.282Z,993.15
2016-11-19T04:28:41.996Z,993.15
2016-11-19T04:29:03.719Z,993.11
2016-11-19T04:29:25.435Z,993.16
2016-11-19T04:29:47.162Z,993.14
2016-11-19T04:30:08.894Z,993.12
2016-11-19T04:30:30.626Z,993.09
2016-11-19T04:30:52.335Z,993.14
2016-11-19T04:31:14.056Z,993.09
2016-11-19T04:31:35.772Z,993.09
2016-11-19T04:31:57.501Z,993.09
2016-11-19T04:32:19.298Z,993.04